Time;durP1;ratioP1;P1;durP2;ratioP2;P2;SDS_P1;SDS_P2;PMS_P1;PMS_P2;Temp;Humidity;BMP_temperature;BMP_pressure;BME280_temperature;BME280_humidity;BME280_pressure;Samples;Min_cycle;Max_cycle;Signal;HPM_P1;HPM_P2
2023/05/20 19:37:36;;;;;;;;;;;;;;;28.79;14.89;101996.03;6182164;23;20377;-64
2023/05/20 19:40:04;;;;;;;;;;;;;;;28.59;15.23;101998.81;6185168;23;19912;-64
2023/05/20 19:42:29;;;;;;;;;;;;;;;28.41;15.18;101994.66;6184758;23;20284;-64
2023/05/20 19:44:54;;;;;;;;;;;;;;;28.38;15.01;101994.09;6184922;23;19996;-65
2023/05/20 19:47:20;;;;;;;;;;;;;;;28.16;15.24;101994.38;6185087;23;19915;-65
2023/05/20 19:49:45;;;;;;;;;;;;;;;27.93;15.06;102008.69;6185220;23;19913;-64
2023/05/20 19:52:11;;;;;;;;;;;;;;;27.81;15.10;102006.16;6184841;23;19922;-64
2023/05/20 19:54:36;;;;;;;;;;;;;;;27.70;15.27;102010.00;6184534;23;19913;-65
2023/05/20 19:57:01;;;;;;;;;;;;;;;27.68;15.31;102018.56;6184723;23;19967;-64
2023/05/20 19:59:30;;;;;;;;;;;;;;;27.60;15.39;102019.91;6185019;23;20313;-64
2023/05/20 20:02:01;;;;;;;;;;;;;;;27.61;15.69;102010.50;6184754;23;19916;-64
2023/05/20 20:04:27;;;;;;;;;;;;;;;27.57;15.77;102011.34;6184811;23;19912;-65
2023/05/20 20:06:52;;;;;;;;;;;;;;;27.57;15.38;102006.63;6184413;23;19908;-64
2023/05/20 20:09:17;;;;;;;;;;;;;;;27.51;15.52;102009.66;6184950;23;19908;-63
2023/05/20 20:11:43;;;;;;;;;;;;;;;27.40;15.68;102006.84;6184646;23;20357;-64
2023/05/20 20:14:08;;;;;;;;;;;;;;;27.38;15.88;102008.25;6184545;23;19939;-64
2023/05/20 20:16:34;;;;;;;;;;;;;;;27.36;15.65;102008.50;6184847;23;19951;-64
2023/05/20 20:19:00;;;;;;;;;;;;;;;27.24;15.90;101999.56;6184770;23;19908;-64
2023/05/20 20:21:25;;;;;;;;;;;;;;;27.13;16.03;101998.69;6184800;23;20042;-64
2023/05/20 20:23:51;;;;;;;;;;;;;;;27.16;16.19;101994.59;6184943;23;20217;-65
2023/05/20 20:26:16;;;;;;;;;;;;;;;27.08;15.84;101997.84;6185834;23;19927;-63
2023/05/20 20:28:42;;;;;;;;;;;;;;;27.01;15.59;101996.16;6185901;23;19983;-64
2023/05/20 20:31:09;;;;;;;;;;;;;;;26.93;16.48;101993.91;6186328;23;19908;-63
2023/05/20 20:33:35;;;;;;;;;;;;;;;26.85;16.31;101997.97;6184631;23;19936;-63
2023/05/20 20:36:01;;;;;;;;;;;;;;;26.68;16.76;101996.50;6184441;23;20320;-64
2023/05/20 20:38:26;;;;;;;;;;;;;;;26.50;16.51;101998.53;6183467;23;19912;-63
2023/05/20 20:40:53;;;;;;;;;;;;;;;26.42;16.49;101991.59;6184964;23;19909;-66
2023/05/20 20:43:19;;;;;;;;;;;;;;;26.33;17.01;101993.16;6184507;23;19914;-55
2023/05/20 20:45:45;;;;;;;;;;;;;;;26.26;16.52;101989.78;6158060;23;20258;-58
2023/05/20 20:48:16;;;;;;;;;;;;;;;26.19;16.52;101986.44;6184451;23;19908;-58
2023/05/20 20:50:41;;;;;;;;;;;;;;;26.08;17.00;101991.84;6184624;23;19913;-58
2023/05/20 20:53:07;;;;;;;;;;;;;;;26.01;17.07;101990.41;6184885;23;19931;-56
2023/05/20 20:55:32;;;;;;;;;;;;;;;25.97;17.29;101986.50;6184392;23;19948;-56
2023/05/20 20:58:01;;;;;;;;;;;;;;;25.87;17.54;101992.69;6184220;23;19983;-55
2023/05/20 21:00:26;;;;;;;;;;;;;;;25.72;18.16;101992.53;6184835;23;20328;-54
2023/05/20 21:02:51;;;;;;;;;;;;;;;25.58;18.52;101981.94;6186993;23;19908;-56
2023/05/20 21:05:17;;;;;;;;;;;;;;;25.53;17.87;101984.63;6186361;23;20321;-52
2023/05/20 21:07:45;;;;;;;;;;;;;;;25.42;18.20;101986.41;6186517;23;19987;-55
2023/05/20 21:10:11;;;;;;;;;;;;;;;25.40;18.48;101988.59;6186719;23;19908;-56
2023/05/20 21:12:36;;;;;;;;;;;;;;;25.35;19.06;101983.03;6186299;23;19965;-55
2023/05/20 21:15:02;;;;;;;;;;;;;;;25.30;19.65;101981.06;6159758;23;20062;-55
2023/05/20 21:17:27;;;;;;;;;;;;;;;25.29;19.66;101979.38;6186424;23;19915;-57
2023/05/20 21:19:53;;;;;;;;;;;;;;;25.24;20.12;101973.84;6186283;23;20445;-57
2023/05/20 21:22:19;;;;;;;;;;;;;;;25.15;20.08;101978.09;6159745;23;19908;-56
2023/05/20 21:24:44;;;;;;;;;;;;;;;25.09;19.60;101977.19;6186445;23;19955;-57
2023/05/20 21:27:09;;;;;;;;;;;;;;;25.02;20.49;101981.22;6186333;23;19912;-54
2023/05/20 21:29:35;;;;;;;;;;;;;;;24.88;20.79;101981.53;6186626;23;19950;-57
2023/05/20 21:32:01;;;;;;;;;;;;;;;24.78;21.13;101981.41;6186562;23;20236;-58
2023/05/20 21:34:26;;;;;;;;;;;;;;;24.61;21.07;101977.84;6185849;23;19920;-58
2023/05/20 21:36:51;;;;;;;;;;;;;;;24.52;21.04;101975.53;6186175;23;19923;-58
2023/05/20 21:39:17;;;;;;;;;;;;;;;24.41;22.16;101979.16;6185307;23;20317;-57
2023/05/20 21:41:42;;;;;;;;;;;;;;;24.31;21.78;101977.06;6186134;23;19915;-54
2023/05/20 21:44:08;;;;;;;;;;;;;;;24.23;22.09;101979.41;6185722;23;20015;-56
2023/05/20 21:46:33;;;;;;;;;;;;;;;24.17;21.61;101975.72;6185839;23;19955;-57
2023/05/20 21:48:58;;;;;;;;;;;;;;;24.05;22.52;101974.94;6185901;23;19913;-56
2023/05/20 21:51:23;;;;;;;;;;;;;;;24.03;22.13;101980.69;6186016;23;19962;-57
2023/05/20 21:53:49;;;;;;;;;;;;;;;23.93;22.53;101970.38;6159624;23;19972;-57
2023/05/20 21:56:14;;;;;;;;;;;;;;;23.87;22.83;101976.84;6185866;23;20294;-54
2023/05/20 21:58:40;;;;;;;;;;;;;;;23.85;23.04;101969.94;6159578;23;19908;-55
2023/05/20 22:01:06;;;;;;;;;;;;;;;23.75;23.15;101976.03;6185813;23;19912;-55
2023/05/20 22:03:32;;;;;;;;;;;;;;;23.72;22.66;101979.28;6186152;23;19983;-56
2023/05/20 22:05:57;;;;;;;;;;;;;;;23.69;22.65;101977.84;6185768;23;19912;-57
2023/05/20 22:08:23;;;;;;;;;;;;;;;23.65;23.24;101979.41;6185776;23;20027;-57
2023/05/20 22:10:48;;;;;;;;;;;;;;;23.57;23.18;101977.88;6185674;23;20237;-56
2023/05/20 22:13:13;;;;;;;;;;;;;;;23.52;23.38;101986.00;6158611;23;19932;-56
2023/05/20 22:15:38;;;;;;;;;;;;;;;23.44;23.70;101982.81;6185065;23;19915;-56
2023/05/20 22:18:04;;;;;;;;;;;;;;;23.38;23.85;101979.97;6159039;23;19914;-56
2023/05/20 22:20:32;;;;;;;;;;;;;;;23.26;24.10;101984.66;6184972;23;20366;-56
2023/05/20 22:22:57;;;;;;;;;;;;;;;23.19;24.22;101978.47;6185186;23;19908;-57
2023/05/20 22:25:23;;;;;;;;;;;;;;;23.18;23.62;101979.56;6185349;23;19994;-57
2023/05/20 22:27:48;;;;;;;;;;;;;;;23.14;24.09;101975.59;6185902;23;19912;-55
2023/05/20 22:30:13;;;;;;;;;;;;;;;23.09;23.68;101975.53;6185668;23;19915;-53
2023/05/20 22:32:39;;;;;;;;;;;;;;;23.02;23.99;101986.56;6158995;23;19912;-57
2023/05/20 22:35:05;;;;;;;;;;;;;;;22.91;24.46;101981.94;6185550;23;19909;-54
2023/05/20 22:37:30;;;;;;;;;;;;;;;22.86;24.10;101979.06;6183678;23;20351;-52
2023/05/20 22:39:55;;;;;;;;;;;;;;;22.84;23.55;101984.78;6185367;23;20003;-55
2023/05/20 22:42:21;;;;;;;;;;;;;;;22.83;24.36;101985.03;6185099;23;19924;-56
2023/05/20 22:44:46;;;;;;;;;;;;;;;22.80;24.34;101984.41;6185606;23;19919;-56
2023/05/20 22:47:12;;;;;;;;;;;;;;;22.77;23.93;101986.78;6185677;23;19919;-56
2023/05/20 22:49:41;;;;;;;;;;;;;;;22.66;24.18;101985.75;6185555;23;19908;-53
2023/05/20 22:52:06;;;;;;;;;;;;;;;22.66;24.35;101987.63;6185678;23;20015;-53
2023/05/20 22:54:33;;;;;;;;;;;;;;;22.59;25.14;101983.13;6185433;23;20325;-51
2023/05/20 22:56:58;;;;;;;;;;;;;;;22.52;24.76;101989.78;6185824;23;19986;-57
2023/05/20 22:59:29;;;;;;;;;;;;;;;22.42;24.98;101982.16;6185475;23;20038;-54
2023/05/20 23:01:55;;;;;;;;;;;;;;;22.38;24.46;101980.94;6185784;23;19916;-52
2023/05/20 23:04:20;;;;;;;;;;;;;;;22.31;24.67;101986.53;6185305;23;20303;-53
2023/05/20 23:06:45;;;;;;;;;;;;;;;22.22;24.83;101982.44;6185548;23;19950;-53
2023/05/20 23:09:11;;;;;;;;;;;;;;;22.14;25.18;101978.13;6185590;23;19908;-54
2023/05/20 23:11:37;;;;;;;;;;;;;;;22.09;25.13;101983.47;6185065;23;20344;-56
2023/05/20 23:14:03;;;;;;;;;;;;;;;22.01;25.49;101981.91;6185486;23;19983;-55
2023/05/20 23:16:28;;;;;;;;;;;;;;;21.92;25.51;101983.28;6185228;23;20312;-55
2023/05/20 23:18:53;;;;;;;;;;;;;;;21.88;25.54;101981.25;6185688;23;19908;-56
2023/05/20 23:21:19;;;;;;;;;;;;;;;21.79;25.46;101978.84;6184881;23;19987;-53
2023/05/20 23:23:44;;;;;;;;;;;;;;;21.84;25.48;101980.88;6184692;23;19963;-55
2023/05/20 23:26:10;;;;;;;;;;;;;;;21.85;25.24;101977.09;6185234;23;19924;-51
2023/05/20 23:28:35;;;;;;;;;;;;;;;21.87;25.30;101974.13;6185455;23;19923;-50
2023/05/20 23:31:00;;;;;;;;;;;;;;;21.82;25.45;101967.44;6185241;23;19940;-55
2023/05/20 23:33:25;;;;;;;;;;;;;;;21.72;25.17;101972.63;6184990;23;19909;-54
2023/05/20 23:35:51;;;;;;;;;;;;;;;21.61;26.11;101974.25;6185386;23;19959;-51
2023/05/20 23:38:17;;;;;;;;;;;;;;;21.58;25.48;101974.72;6184110;23;20217;-54
2023/05/20 23:40:42;;;;;;;;;;;;;;;21.52;25.33;101975.63;6185011;23;19908;-55
2023/05/20 23:43:07;;;;;;;;;;;;;;;21.44;26.24;101974.03;6184757;23;19996;-55
2023/05/20 23:45:32;;;;;;;;;;;;;;;21.41;25.74;101977.22;6184908;23;19913;-53
2023/05/20 23:47:59;;;;;;;;;;;;;;;21.33;26.82;101980.25;6185105;23;19914;-53
2023/05/20 23:50:26;;;;;;;;;;;;;;;21.29;26.43;101979.03;6185083;23;19962;-52
2023/05/20 23:52:51;;;;;;;;;;;;;;;21.24;25.67;101976.97;6158384;23;19908;-53
2023/05/20 23:55:17;;;;;;;;;;;;;;;21.19;25.84;101976.00;6184656;23;20352;-54
2023/05/20 23:57:42;;;;;;;;;;;;;;;21.19;26.26;101974.13;6184922;23;19908;-57
